Accueil
METAR-TAF:

METAR-TAF

Aéroports :

Sedalia, Missouri, États-Unis

latitude: 38-42-44N, longitude: 093-10-28W, altitude: 277 m

Observation

Le bulletin a été fait il y a 32 minutes, à 10:53 UTC
Vent 11 kt de nord
Température 0°C
Humidité 100%
Pression 1023 hPa
Visibilité: 9.7 km
Ciel couvert à une hauteur de 600 ft
brume

METAR: KDMO 041053Z AUTO 36011KT 6SM BR OVC006 00/00 A3020 RMK AO2 SLP237 T00000000 $

Heure: 06:25 (11:25 UTC)


TAF: absent

Observations et prévisions météorologiques de plus de 4000 aéroports (messages METAR et TAF).

Les stations disponibles sont représentées par des disques jaunes et rouges sur la carte.

Passer la souris dessus pour voir le nom de la station.

Cliquer dessus pour voir les observations et prévisions météorologiques.

Pour changer de carte: cliquez sur les boutons verts avec une croix noire pour zoomer, sur le bouton vert avec un tiret pour effectuer un zoom arrière, ou sur les flèches vertes pour les cartes adjacentes.


METAR-TAF: